Terminal Aerodrome Forecast
Issued by NWS Duluth, MN

Home | Current Version | Previous Version | Text Only | Print | Product List | Glossary On
Versions: 1 2 3 4 5 6 7 8 9 10 11 12 13 14 15 16 17 18 19 20 21 22
000
FTUS43 KDLH 202300
TAFINL
TAF
KINL 202326Z 2100/2124 VRB06KT P6SM BKN250
     FM210700 19005KT P6SM VCSH BKN060
     FM211200 33008G19KT P6SM BKN040=

USA.gov is the U.S. government's official web portal to all federal, state and local government web resources and services.